createdAt,value
2018-04-28T00:00:07.823Z,73.35
2018-04-28T00:02:36.113Z,73.20
2018-04-28T00:05:04.397Z,73.68
2018-04-28T00:07:32.693Z,74.81
2018-04-28T00:10:01.727Z,75.37
2018-04-28T00:12:30.020Z,76.00
2018-04-28T00:14:58.319Z,74.86
2018-04-28T00:17:41.481Z,75.17
2018-04-28T00:20:12.978Z,75.09
2018-04-28T00:22:43.175Z,75.66
2018-04-28T00:25:27.141Z,75.13
2018-04-28T00:28:06.130Z,74.82
2018-04-28T00:30:47.139Z,75.02
2018-04-28T00:33:21.035Z,74.76
2018-04-28T00:35:55.140Z,74.94
2018-04-28T00:38:24.978Z,74.81
2018-04-28T00:40:53.283Z,74.90
2018-04-28T00:43:24.338Z,75.61
2018-04-28T00:45:59.042Z,75.68
2018-04-28T00:51:38.650Z,75.51
2018-04-28T00:58:04.754Z,74.97
2018-04-28T01:06:46.406Z,74.69
2018-04-28T01:09:15.373Z,73.72
2018-04-28T01:11:47.801Z,74.82
2018-04-28T01:17:23.299Z,74.64
2018-04-28T01:19:59.382Z,75.04
2018-04-28T01:22:29.617Z,75.73
2018-04-28T01:25:01.751Z,76.35
2018-04-28T01:27:51.462Z,76.25
2018-04-28T01:30:21.562Z,76.49
2018-04-28T01:36:14.127Z,76.82
2018-04-28T01:38:42.407Z,76.92
2018-04-28T01:41:32.055Z,76.58
2018-04-28T01:44:02.851Z,76.50
2018-04-28T01:46:43.764Z,76.98
2018-04-28T01:52:31.331Z,76.68
2018-04-28T01:55:04.284Z,76.64
2018-04-28T01:57:37.009Z,76.53
2018-04-28T02:00:57.219Z,76.90
2018-04-28T02:03:38.950Z,77.20
2018-04-28T02:06:20.914Z,77.34
2018-04-28T02:08:50.433Z,76.49
2018-04-28T02:11:21.366Z,76.87
2018-04-28T02:13:54.315Z,76.64
2018-04-28T02:19:30.092Z,76.76
2018-04-28T02:22:17.002Z,76.79
2018-04-28T02:24:59.295Z,77.10
2018-04-28T02:27:36.038Z,76.99
2018-04-28T02:30:04.395Z,77.34
2018-04-28T02:32:34.427Z,78.12
2018-04-28T02:35:19.093Z,78.02
2018-04-28T02:37:52.219Z,78.36
2018-04-28T02:43:24.079Z,78.63
2018-04-28T02:45:54.779Z,78.46
2018-04-28T02:48:51.512Z,78.63
2018-04-28T02:51:53.664Z,78.49
2018-04-28T03:00:44.226Z,79.85
2018-04-28T03:06:40.623Z,79.23
2018-04-28T03:09:11.684Z,79.76
2018-04-28T03:11:47.485Z,79.88
2018-04-28T03:14:16.495Z,79.90
2018-04-28T03:16:52.602Z,79.49
2018-04-28T03:19:21.451Z,79.39
2018-04-28T03:21:49.735Z,79.54
2018-04-28T03:30:42.540Z,79.31
2018-04-28T03:33:20.328Z,79.68
2018-04-28T03:35:53.788Z,79.82
2018-04-28T03:41:29.514Z,78.45
2018-04-28T03:44:12.191Z,77.27
2018-04-28T03:46:43.370Z,77.23
2018-04-28T03:49:23.146Z,77.31
2018-04-28T03:54:57.259Z,76.69
2018-04-28T03:57:43.264Z,75.53
2018-04-28T04:00:29.358Z,75.76
2018-04-28T04:06:10.238Z,76.50
2018-04-28T04:08:58.749Z,76.95
2018-04-28T04:11:42.719Z,77.04
2018-04-28T04:14:21.332Z,77.29
2018-04-28T04:20:23.742Z,76.72
2018-04-28T04:26:09.950Z,77.12
2018-04-28T04:31:54.442Z,77.67
2018-04-28T04:34:28.126Z,77.64
2018-04-28T04:37:00.499Z,77.96
2018-04-28T04:39:44.448Z,78.19
2018-04-28T04:42:35.090Z,78.44
2018-04-28T04:48:30.730Z,77.69
2018-04-28T04:51:09.438Z,78.11
2018-04-28T04:53:45.327Z,78.02
2018-04-28T04:56:28.066Z,77.67
2018-04-28T05:02:18.837Z,77.85
2018-04-28T05:05:14.090Z,78.42
2018-04-28T05:08:01.986Z,77.99
2018-04-28T05:10:46.403Z,77.96
2018-04-28T05:16:50.007Z,77.82
2018-04-28T05:20:02.483Z,77.52
2018-04-28T05:22:43.259Z,75.99
2018-04-28T05:25:21.017Z,76.52
2018-04-28T05:28:01.650Z,76.70
2018-04-28T05:33:41.992Z,77.01
2018-04-28T05:43:09.830Z,74.51
2018-04-28T05:49:21.223Z,75.20
2018-04-28T05:55:17.698Z,74.78
2018-04-28T05:57:55.055Z,74.67
2018-04-28T06:00:33.959Z,74.73
2018-04-28T06:06:28.122Z,74.61
2018-04-28T06:12:41.767Z,74.06
2018-04-28T06:15:17.613Z,73.07
2018-04-28T06:20:57.324Z,70.74
2018-04-28T06:23:25.891Z,70.66
2018-04-28T06:25:54.237Z,68.74
2018-04-28T06:28:23.418Z,69.63
2018-04-28T06:30:51.729Z,68.82
2018-04-28T06:33:20.024Z,67.05
2018-04-28T06:35:48.374Z,67.55
2018-04-28T06:38:16.587Z,66.44
2018-04-28T06:40:44.858Z,67.47
2018-04-28T06:43:13.247Z,66.10
2018-04-28T06:45:41.553Z,67.71
2018-04-28T06:48:09.886Z,67.68
2018-04-28T06:50:38.170Z,65.77
2018-04-28T06:53:06.490Z,64.98
2018-04-28T06:55:34.831Z,63.77
2018-04-28T06:58:03.539Z,63.72
2018-04-28T07:00:32.702Z,64.62
2018-04-28T07:03:01.081Z,62.44
2018-04-28T07:05:29.356Z,62.25
2018-04-28T07:07:57.629Z,62.88
2018-04-28T07:10:26.254Z,61.79
2018-04-28T07:12:54.542Z,61.53
2018-04-28T07:15:23.066Z,60.21
2018-04-28T07:17:51.314Z,59.71
2018-04-28T07:20:19.612Z,59.56
2018-04-28T07:22:48.663Z,58.59
2018-04-28T07:25:16.939Z,57.99
2018-04-28T07:27:45.266Z,57.81
2018-04-28T07:30:14.320Z,58.43
2018-04-28T07:32:45.627Z,58.81
2018-04-28T07:35:13.958Z,58.74
2018-04-28T07:37:42.233Z,59.35
2018-04-28T07:40:10.532Z,57.16
2018-04-28T07:42:38.827Z,56.23
2018-04-28T07:45:07.151Z,57.53
2018-04-28T07:47:35.470Z,59.16
2018-04-28T07:50:04.107Z,57.03
2018-04-28T07:52:32.406Z,56.29
2018-04-28T07:55:00.691Z,56.66
2018-04-28T07:57:29.038Z,56.97
2018-04-28T07:59:58.243Z,57.72
2018-04-28T08:02:26.614Z,57.54
2018-04-28T08:04:55.017Z,55.50
2018-04-28T08:07:23.715Z,57.95
2018-04-28T08:09:52.009Z,55.04
2018-04-28T08:12:21.076Z,55.46
2018-04-28T08:14:50.075Z,54.18
2018-04-28T08:17:18.347Z,53.67
2018-04-28T08:19:46.644Z,55.93
2018-04-28T08:22:14.907Z,55.05
2018-04-28T08:24:43.199Z,55.85
2018-04-28T08:27:11.583Z,55.90
2018-04-28T08:29:40.175Z,58.68
2018-04-28T08:32:08.513Z,55.88
2018-04-28T08:34:36.782Z,56.39
2018-04-28T08:37:05.169Z,56.04
2018-04-28T08:39:33.814Z,55.76
2018-04-28T08:42:03.474Z,57.18
2018-04-28T08:44:31.832Z,58.86
2018-04-28T08:47:01.085Z,56.64
2018-04-28T08:49:29.380Z,55.58
2018-04-28T08:51:58.438Z,53.14
2018-04-28T08:54:26.711Z,53.87
2018-04-28T08:56:55.006Z,54.56
2018-04-28T08:59:35.582Z,55.20
2018-04-28T09:02:03.863Z,56.16
2018-04-28T09:04:32.826Z,57.10
2018-04-28T09:07:08.223Z,54.50
2018-04-28T09:09:36.526Z,54.54
2018-04-28T09:12:05.155Z,55.05
2018-04-28T09:14:35.451Z,54.13
2018-04-28T09:17:04.607Z,54.11
2018-04-28T09:19:34.503Z,53.42
2018-04-28T09:22:02.709Z,54.08
2018-04-28T09:24:30.983Z,54.58
2018-04-28T09:26:59.350Z,54.53
2018-04-28T09:29:28.405Z,53.66
2018-04-28T09:31:56.913Z,54.65
2018-04-28T09:34:26.091Z,54.88
2018-04-28T09:36:55.232Z,55.02
2018-04-28T09:39:25.114Z,55.28
2018-04-28T09:41:55.365Z,54.85
2018-04-28T09:44:24.532Z,54.66
2018-04-28T09:46:53.830Z,55.46
2018-04-28T09:49:22.212Z,55.73
2018-04-28T09:51:50.482Z,54.61
2018-04-28T09:54:18.926Z,54.87
2018-04-28T09:56:48.382Z,54.89
2018-04-28T09:59:18.275Z,53.57
2018-04-28T10:01:47.176Z,53.10
2018-04-28T10:04:21.015Z,53.38
2018-04-28T10:06:50.266Z,52.73
2018-04-28T10:09:18.570Z,52.99
2018-04-28T10:11:46.937Z,52.60
2018-04-28T10:14:15.229Z,52.08
2018-04-28T10:16:44.223Z,49.75
2018-04-28T10:19:12.506Z,49.19
2018-04-28T10:21:40.871Z,49.37
2018-04-28T10:24:09.638Z,50.28
2018-04-28T10:26:38.060Z,49.55
2018-04-28T10:29:06.367Z,50.78
2018-04-28T10:31:34.661Z,50.26
2018-04-28T10:34:03.539Z,49.51
2018-04-28T10:36:31.827Z,49.28
2018-04-28T10:39:00.116Z,50.38
2018-04-28T10:41:28.442Z,49.03
2018-04-28T10:43:56.730Z,49.49
2018-04-28T10:46:25.790Z,48.48
2018-04-28T10:48:54.158Z,49.18
2018-04-28T10:51:23.218Z,49.63
2018-04-28T10:53:52.931Z,48.46
2018-04-28T10:56:21.349Z,47.82
2018-04-28T10:58:49.631Z,48.16
2018-04-28T11:01:17.922Z,48.87
2018-04-28T11:03:46.266Z,49.02
2018-04-28T11:06:14.695Z,48.75
2018-04-28T11:08:42.962Z,47.27
2018-04-28T11:11:11.337Z,47.58
2018-04-28T11:13:39.625Z,48.72
2018-04-28T11:16:08.284Z,49.23
2018-04-28T11:18:36.579Z,48.48
2018-04-28T11:21:04.939Z,48.28
2018-04-28T11:23:33.315Z,49.22
2018-04-28T11:26:01.623Z,50.08
2018-04-28T11:28:29.905Z,51.14
2018-04-28T11:30:58.247Z,50.51
2018-04-28T11:33:28.095Z,50.47
2018-04-28T11:35:56.383Z,51.28
2018-04-28T11:38:24.749Z,50.76
2018-04-28T11:40:53.218Z,50.34
2018-04-28T11:43:21.511Z,50.89
2018-04-28T11:45:49.799Z,50.66
2018-04-28T11:48:18.101Z,50.60
2018-04-28T11:50:47.142Z,51.20
2018-04-28T11:53:15.459Z,51.44
2018-04-28T11:55:44.102Z,51.62
2018-04-28T11:58:12.381Z,50.25
2018-04-28T12:00:40.963Z,50.83
2018-04-28T12:03:09.253Z,50.97
2018-04-28T12:05:37.527Z,50.71
2018-04-28T12:08:06.017Z,50.32
2018-04-28T12:10:34.288Z,49.66
2018-04-28T12:13:02.571Z,52.07
2018-04-28T12:15:30.869Z,49.91
2018-04-28T12:17:59.136Z,50.08
2018-04-28T12:20:27.494Z,49.60
2018-04-28T12:22:55.987Z,49.14
2018-04-28T12:25:24.390Z,48.82
2018-04-28T12:27:52.662Z,48.26
2018-04-28T12:30:20.971Z,48.71
2018-04-28T12:32:50.138Z,47.81
2018-04-28T12:35:18.495Z,47.00
2018-04-28T12:37:46.991Z,46.88
2018-04-28T12:40:15.265Z,47.31
2018-04-28T12:42:43.555Z,47.54
2018-04-28T12:45:11.844Z,46.94
2018-04-28T12:47:40.138Z,47.09
2018-04-28T12:50:09.219Z,47.27
2018-04-28T12:52:37.502Z,47.55
2018-04-28T12:55:05.836Z,47.17
2018-04-28T12:57:34.214Z,47.39
2018-04-28T13:00:03.565Z,44.97
2018-04-28T13:02:31.855Z,44.62
2018-04-28T13:05:00.934Z,44.93
2018-04-28T13:07:29.522Z,46.63
2018-04-28T13:09:58.620Z,46.22
2018-04-28T13:12:27.027Z,47.51
2018-04-28T13:14:55.317Z,47.80
2018-04-28T13:17:23.598Z,47.09
2018-04-28T13:19:51.907Z,47.24
2018-04-28T13:22:21.130Z,47.25
2018-04-28T13:24:49.403Z,46.99
2018-04-28T13:27:18.052Z,44.44
2018-04-28T13:29:46.329Z,38.44
2018-04-28T13:32:14.622Z,38.68
2018-04-28T13:34:43.818Z,40.07
2018-04-28T13:37:12.088Z,41.75
2018-04-28T13:39:41.113Z,43.33
2018-04-28T13:42:09.399Z,44.92
2018-04-28T13:44:37.671Z,43.99
2018-04-28T13:47:06.228Z,45.50
2018-04-28T13:49:34.838Z,42.25
2018-04-28T13:52:03.246Z,41.91
2018-04-28T13:54:32.381Z,43.14
2018-04-28T13:57:00.760Z,44.96
2018-04-28T13:59:29.051Z,45.32
2018-04-28T14:01:57.441Z,45.87
2018-04-28T14:04:25.910Z,45.59
2018-04-28T14:06:54.225Z,43.02
2018-04-28T14:09:22.915Z,43.23
2018-04-28T14:11:51.963Z,42.33
2018-04-28T14:14:20.241Z,42.99
2018-04-28T14:16:48.520Z,44.21
2018-04-28T14:19:18.045Z,43.27
2018-04-28T14:21:46.888Z,44.01
2018-04-28T14:24:15.171Z,44.27
2018-04-28T14:26:43.468Z,42.46
2018-04-28T14:29:11.974Z,39.33
2018-04-28T14:31:40.243Z,38.16
2018-04-28T14:34:08.715Z,40.92
2018-04-28T14:36:37.354Z,41.09
2018-04-28T14:39:06.979Z,41.54
2018-04-28T14:41:36.015Z,42.43
2018-04-28T14:44:04.394Z,42.77
2018-04-28T14:46:32.762Z,43.63
2018-04-28T14:49:01.061Z,43.75
2018-04-28T14:51:29.390Z,43.39
2018-04-28T14:53:58.315Z,44.74
2018-04-28T14:56:26.839Z,44.39
2018-04-28T14:58:55.161Z,44.38
2018-04-28T15:01:23.446Z,44.55
2018-04-28T15:03:51.719Z,45.26
2018-04-28T15:06:20.119Z,43.99
2018-04-28T15:08:48.402Z,41.78
2018-04-28T15:11:16.695Z,43.60
2018-04-28T15:13:45.867Z,44.02
2018-04-28T15:16:14.471Z,44.96
2018-04-28T15:18:42.733Z,45.31
2018-04-28T15:21:11.110Z,45.68
2018-04-28T15:23:39.370Z,45.71
2018-04-28T15:26:07.651Z,46.43
2018-04-28T15:28:36.044Z,46.81
2018-04-28T15:31:04.774Z,45.76
2018-04-28T15:33:33.107Z,45.91
2018-04-28T15:36:01.438Z,44.98
2018-04-28T15:38:30.119Z,45.81
2018-04-28T15:40:58.413Z,46.48
2018-04-28T15:43:26.731Z,45.74
2018-04-28T15:45:55.742Z,42.88
2018-04-28T15:48:24.030Z,39.15
2018-04-28T15:50:52.392Z,37.95
2018-04-28T15:53:20.882Z,39.53
2018-04-28T15:55:49.239Z,41.18
2018-04-28T15:58:18.604Z,42.33
2018-04-28T16:00:47.755Z,43.55
2018-04-28T16:03:16.591Z,44.02
2018-04-28T16:05:45.623Z,43.58
2018-04-28T16:08:14.375Z,42.71
2018-04-28T16:10:43.423Z,43.23
2018-04-28T16:13:12.735Z,44.28
2018-04-28T16:15:41.021Z,44.02
2018-04-28T16:18:09.302Z,45.02
2018-04-28T16:20:37.683Z,44.99
2018-04-28T16:23:06.055Z,44.94
2018-04-28T16:25:34.323Z,44.74
2018-04-28T16:28:02.642Z,43.87
2018-04-28T16:30:33.275Z,43.69
2018-04-28T16:33:03.300Z,44.36
2018-04-28T16:35:32.597Z,44.71
2018-04-28T16:38:01.774Z,45.21
2018-04-28T16:40:30.110Z,45.20
2018-04-28T16:42:59.663Z,45.26
2018-04-28T16:45:28.680Z,46.09
2018-04-28T16:47:58.582Z,45.42
2018-04-28T16:50:26.858Z,45.62
2018-04-28T16:52:56.657Z,44.37
2018-04-28T16:55:25.981Z,45.16
2018-04-28T16:57:54.831Z,45.79
2018-04-28T17:00:23.106Z,45.84
2018-04-28T17:02:51.366Z,44.92
2018-04-28T17:05:20.485Z,44.78
2018-04-28T17:07:48.854Z,44.86
2018-04-28T17:10:17.184Z,44.01
2018-04-28T17:12:46.678Z,43.58
2018-04-28T17:15:15.063Z,47.03
2018-04-28T17:17:54.274Z,48.71
2018-04-28T17:20:22.678Z,49.91
2018-04-28T17:22:50.959Z,50.91
2018-04-28T17:25:19.918Z,51.44
2018-04-28T17:27:48.206Z,51.89
2018-04-28T17:30:16.498Z,53.54
2018-04-28T17:32:45.523Z,55.04
2018-04-28T17:35:13.817Z,55.31
2018-04-28T17:37:42.214Z,56.00
2018-04-28T17:40:10.594Z,56.73
2018-04-28T17:42:38.882Z,57.51
2018-04-28T17:45:07.246Z,57.59
2018-04-28T17:47:35.535Z,58.47
2018-04-28T17:50:04.162Z,58.73
2018-04-28T17:52:32.450Z,59.59
2018-04-28T17:55:01.709Z,60.89
2018-04-28T17:57:29.996Z,61.50
2018-04-28T17:59:58.293Z,61.93
2018-04-28T18:02:27.354Z,62.11
2018-04-28T18:04:55.627Z,62.72
2018-04-28T18:07:23.974Z,62.81
2018-04-28T18:09:52.238Z,62.89
2018-04-28T18:12:21.284Z,63.06
2018-04-28T18:14:49.564Z,63.51
2018-04-28T18:17:17.865Z,63.90
2018-04-28T18:19:46.558Z,64.24
2018-04-28T18:22:14.853Z,64.88
2018-04-28T18:24:43.895Z,64.60
2018-04-28T18:27:12.186Z,64.97
2018-04-28T18:29:40.546Z,64.60
2018-04-28T18:32:08.839Z,64.77
2018-04-28T18:34:37.121Z,65.05
2018-04-28T18:37:05.686Z,64.75
2018-04-28T18:39:34.183Z,64.61
2018-04-28T18:42:03.073Z,65.13
2018-04-28T18:44:31.538Z,65.70
2018-04-28T18:46:59.818Z,66.29
2018-04-28T18:49:28.091Z,67.00
2018-04-28T18:51:56.687Z,67.13
2018-04-28T18:54:25.344Z,68.13
2018-04-28T18:56:54.852Z,68.25
2018-04-28T18:59:23.159Z,68.52
2018-04-28T19:01:51.878Z,69.10
2018-04-28T19:04:20.191Z,69.74
2018-04-28T19:06:48.503Z,70.16
2018-04-28T19:09:16.803Z,69.98
2018-04-28T19:11:45.898Z,69.56
2018-04-28T19:14:14.942Z,69.46
2018-04-28T19:16:43.188Z,69.19
2018-04-28T19:19:11.739Z,69.46
2018-04-28T19:21:40.006Z,70.12
2018-04-28T19:24:08.314Z,70.23
2018-04-28T19:26:36.609Z,70.59
2018-04-28T19:29:04.927Z,70.84
2018-04-28T19:31:33.208Z,71.06
2018-04-28T19:34:01.481Z,71.09
2018-04-28T19:36:29.783Z,70.75
2018-04-28T19:38:58.279Z,71.37
2018-04-28T19:41:26.575Z,70.83
2018-04-28T19:43:54.967Z,71.21
2018-04-28T19:46:23.267Z,70.85
2018-04-28T19:48:52.585Z,71.23
2018-04-28T19:51:20.995Z,71.17
2018-04-28T19:53:49.806Z,71.00
2018-04-28T19:56:18.110Z,71.22
2018-04-28T19:58:47.158Z,71.39
2018-04-28T20:01:16.363Z,71.61
2018-04-28T20:06:12.790Z,72.17
2018-04-28T20:08:41.069Z,72.64
2018-04-28T20:11:10.762Z,73.01
2018-04-28T20:13:39.388Z,72.86
2018-04-28T20:16:07.671Z,73.60
2018-04-28T20:18:35.981Z,73.24
2018-04-28T20:21:05.187Z,73.79
2018-04-28T20:23:52.830Z,73.41
2018-04-28T20:26:21.245Z,73.38
2018-04-28T20:28:49.811Z,73.62
2018-04-28T20:31:18.084Z,73.71
2018-04-28T20:33:47.034Z,74.26
2018-04-28T20:36:15.299Z,73.62
2018-04-28T20:38:43.737Z,74.58
2018-04-28T20:41:12.359Z,74.32
2018-04-28T20:43:41.188Z,73.20
2018-04-28T20:46:10.255Z,74.68
2018-04-28T20:48:38.539Z,75.90
2018-04-28T20:51:06.821Z,76.64
2018-04-28T20:53:35.158Z,76.53
2018-04-28T20:56:03.441Z,76.18
2018-04-28T20:58:31.944Z,75.73
2018-04-28T21:01:00.250Z,75.52
2018-04-28T21:03:29.323Z,75.28
2018-04-28T21:05:57.619Z,75.96
2018-04-28T21:08:25.898Z,76.27
2018-04-28T21:10:54.199Z,75.94
2018-04-28T21:13:22.489Z,76.48
2018-04-28T21:15:51.027Z,76.56
2018-04-28T21:18:19.679Z,76.83
2018-04-28T21:20:47.971Z,76.91
2018-04-28T21:23:16.234Z,76.86
2018-04-28T21:25:44.577Z,76.30
2018-04-28T21:28:13.483Z,76.21
2018-04-28T21:30:41.762Z,76.15
2018-04-28T21:33:10.920Z,76.10
2018-04-28T21:35:40.079Z,76.83
2018-04-28T21:38:08.477Z,76.66
2018-04-28T21:40:36.755Z,77.04
2018-04-28T21:43:05.980Z,77.51
2018-04-28T21:45:34.571Z,77.51
2018-04-28T21:48:03.633Z,78.24
2018-04-28T21:50:32.727Z,78.06
2018-04-28T21:53:01.547Z,78.18
2018-04-28T21:55:29.822Z,78.19
2018-04-28T21:57:58.146Z,78.38
2018-04-28T22:00:26.431Z,78.68
2018-04-28T22:02:54.732Z,78.83
2018-04-28T22:05:23.103Z,79.22
2018-04-28T22:07:51.429Z,79.70
2018-04-28T22:10:20.497Z,79.65
2018-04-28T22:12:49.084Z,79.29
2018-04-28T22:15:17.410Z,75.97
2018-04-28T22:17:45.935Z,74.22
2018-04-28T22:20:14.398Z,74.27
2018-04-28T22:22:42.683Z,75.07
2018-04-28T22:25:11.459Z,74.52
2018-04-28T22:27:39.791Z,74.24
2018-04-28T22:30:08.055Z,74.27
2018-04-28T22:32:36.399Z,73.86
2018-04-28T22:35:05.106Z,74.15
2018-04-28T22:37:33.872Z,73.97
2018-04-28T22:40:02.146Z,73.71
2018-04-28T22:42:30.434Z,73.74
2018-04-28T22:44:58.816Z,73.33
2018-04-28T22:47:27.116Z,74.26
2018-04-28T22:49:56.209Z,73.83
2018-04-28T22:52:25.121Z,74.00
2018-04-28T22:54:54.165Z,73.92
2018-04-28T22:57:22.745Z,73.39
2018-04-28T22:59:51.023Z,74.43
2018-04-28T23:02:19.419Z,74.54
2018-04-28T23:04:48.281Z,74.94
2018-04-28T23:07:17.342Z,74.17
2018-04-28T23:09:45.618Z,74.85
2018-04-28T23:12:13.918Z,75.20
2018-04-28T23:14:43.072Z,76.00
2018-04-28T23:17:11.467Z,76.49
2018-04-28T23:19:40.541Z,77.44
2018-04-28T23:22:08.868Z,77.94
2018-04-28T23:24:37.951Z,77.33
2018-04-28T23:27:06.386Z,76.39
2018-04-28T23:29:34.679Z,76.21
2018-04-28T23:32:02.972Z,76.21
2018-04-28T23:34:31.525Z,76.01
2018-04-28T23:36:59.815Z,75.71
2018-04-28T23:39:28.106Z,76.03
2018-04-28T23:41:56.422Z,76.20
2018-04-28T23:44:25.697Z,76.59
2018-04-28T23:46:54.106Z,76.20
2018-04-28T23:49:23.192Z,75.54
2018-04-28T23:51:51.532Z,75.86
2018-04-28T23:54:19.810Z,76.21
2018-04-28T23:56:48.123Z,76.62
2018-04-28T23:59:16.855Z,76.79
